sensor_id;sensor_type;location;lat;lon;timestamp;temperature;humidity
5828;DHT22;42583;50.240;8.444;2023-12-04T00:12:54;-1.90;95.10
5828;DHT22;42583;50.240;8.444;2023-12-04T00:27:54;-1.80;94.50
5828;DHT22;42583;50.240;8.444;2023-12-04T00:42:55;-1.60;93.60
5828;DHT22;42583;50.240;8.444;2023-12-04T00:57:55;-1.70;93.20
5828;DHT22;42583;50.240;8.444;2023-12-04T01:12:56;-1.60;92.90
5828;DHT22;42583;50.240;8.444;2023-12-04T01:27:56;-1.50;91.20
5828;DHT22;42583;50.240;8.444;2023-12-04T01:42:57;-1.40;88.10
5828;DHT22;42583;50.240;8.444;2023-12-04T01:57:57;-1.20;81.00
5828;DHT22;42583;50.240;8.444;2023-12-04T02:12:59;-1.10;76.60
5828;DHT22;42583;50.240;8.444;2023-12-04T02:28:02;-1.00;73.10
5828;DHT22;42583;50.240;8.444;2023-12-04T02:43:05;-1.00;69.90
5828;DHT22;42583;50.240;8.444;2023-12-04T02:58:05;-1.00;68.40
5828;DHT22;42583;50.240;8.444;2023-12-04T03:13:06;-1.00;70.50
5828;DHT22;42583;50.240;8.444;2023-12-04T03:28:06;-0.90;74.20
5828;DHT22;42583;50.240;8.444;2023-12-04T03:43:07;-0.80;75.80
5828;DHT22;42583;50.240;8.444;2023-12-04T03:58:07;-0.60;72.60
5828;DHT22;42583;50.240;8.444;2023-12-04T04:13:08;-0.40;70.40
5828;DHT22;42583;50.240;8.444;2023-12-04T04:28:08;-0.30;68.80
5828;DHT22;42583;50.240;8.444;2023-12-04T04:43:10;-0.60;72.30
5828;DHT22;42583;50.240;8.444;2023-12-04T04:58:10;-1.00;75.80
5828;DHT22;42583;50.240;8.444;2023-12-04T05:13:11;-1.30;77.80
5828;DHT22;42583;50.240;8.444;2023-12-04T05:28:11;-1.40;76.70
5828;DHT22;42583;50.240;8.444;2023-12-04T05:43:12;-1.30;75.00
5828;DHT22;42583;50.240;8.444;2023-12-04T05:58:12;-1.20;74.90
5828;DHT22;42583;50.240;8.444;2023-12-04T06:13:14;-1.30;76.50
5828;DHT22;42583;50.240;8.444;2023-12-04T06:28:15;-1.40;76.70
5828;DHT22;42583;50.240;8.444;2023-12-04T06:43:15;-1.40;76.80
5828;DHT22;42583;50.240;8.444;2023-12-04T06:58:18;-1.30;77.20
5828;DHT22;42583;50.240;8.444;2023-12-04T07:13:19;-1.40;76.90
5828;DHT22;42583;50.240;8.444;2023-12-04T07:28:20;-1.30;76.00
5828;DHT22;42583;50.240;8.444;2023-12-04T07:43:20;-1.20;75.10
5828;DHT22;42583;50.240;8.444;2023-12-04T07:58:21;-1.20;75.50
5828;DHT22;42583;50.240;8.444;2023-12-04T08:13:21;-1.10;75.60
5828;DHT22;42583;50.240;8.444;2023-12-04T08:28:22;-1.10;74.80
5828;DHT22;42583;50.240;8.444;2023-12-04T08:43:22;-0.80;71.90
5828;DHT22;42583;50.240;8.444;2023-12-04T08:58:24;-0.30;70.60
5828;DHT22;42583;50.240;8.444;2023-12-04T09:13:24;0.40;74.00
5828;DHT22;42583;50.240;8.444;2023-12-04T09:28:26;1.10;81.00
5828;DHT22;42583;50.240;8.444;2023-12-04T09:43:27;1.40;83.60
5828;DHT22;42583;50.240;8.444;2023-12-04T09:58:28;1.40;80.60
5828;DHT22;42583;50.240;8.444;2023-12-04T10:13:29;1.20;72.60
5828;DHT22;42583;50.240;8.444;2023-12-04T10:28:30;1.10;69.60
5828;DHT22;42583;50.240;8.444;2023-12-04T10:43:30;1.00;66.60
5828;DHT22;42583;50.240;8.444;2023-12-04T10:58:32;1.00;77.80
5828;DHT22;42583;50.240;8.444;2023-12-04T11:13:41;1.10;72.10
5828;DHT22;42583;50.240;8.444;2023-12-04T11:28:43;0.60;67.20
5828;DHT22;42583;50.240;8.444;2023-12-04T11:43:46;0.10;80.60
5828;DHT22;42583;50.240;8.444;2023-12-04T11:58:47;-0.50;91.00
5828;DHT22;42583;50.240;8.444;2023-12-04T12:13:47;-0.70;97.50
5828;DHT22;42583;50.240;8.444;2023-12-04T12:28:48;-0.50;99.90
5828;DHT22;42583;50.240;8.444;2023-12-04T12:43:52;-0.20;99.90
5828;DHT22;42583;50.240;8.444;2023-12-04T12:58:53;0.00;99.90
5828;DHT22;42583;50.240;8.444;2023-12-04T13:13:54;0.00;99.90
5828;DHT22;42583;50.240;8.444;2023-12-04T13:28:57;-0.10;99.90
5828;DHT22;42583;50.240;8.444;2023-12-04T13:43:57;-0.10;99.90
5828;DHT22;42583;50.240;8.444;2023-12-04T13:59:00;0.10;99.90
5828;DHT22;42583;50.240;8.444;2023-12-04T14:14:02;0.30;99.90
5828;DHT22;42583;50.240;8.444;2023-12-04T14:29:03;0.30;99.90
5828;DHT22;42583;50.240;8.444;2023-12-04T14:44:04;0.20;99.90
5828;DHT22;42583;50.240;8.444;2023-12-04T14:59:04;0.30;99.90
5828;DHT22;42583;50.240;8.444;2023-12-04T15:14:05;0.30;99.90
5828;DHT22;42583;50.240;8.444;2023-12-04T15:29:21;0.30;99.90
5828;DHT22;42583;50.240;8.444;2023-12-04T15:44:22;0.20;99.90
5828;DHT22;42583;50.240;8.444;2023-12-04T15:59:22;0.20;99.90
5828;DHT22;42583;50.240;8.444;2023-12-04T16:14:23;0.20;99.90
5828;DHT22;42583;50.240;8.444;2023-12-04T16:29:23;0.20;99.90
5828;DHT22;42583;50.240;8.444;2023-12-04T16:44:33;0.20;99.90
5828;DHT22;42583;50.240;8.444;2023-12-04T16:59:33;0.30;99.90
5828;DHT22;42583;50.240;8.444;2023-12-04T17:14:34;0.40;99.90
5828;DHT22;42583;50.240;8.444;2023-12-04T17:29:35;0.40;99.90
5828;DHT22;42583;50.240;8.444;2023-12-04T17:44:36;0.30;99.90
5828;DHT22;42583;50.240;8.444;2023-12-04T17:59:40;0.30;99.90
5828;DHT22;42583;50.240;8.444;2023-12-04T18:14:40;0.40;99.90
5828;DHT22;42583;50.240;8.444;2023-12-04T18:29:41;0.50;99.90
5828;DHT22;42583;50.240;8.444;2023-12-04T18:44:42;0.70;99.90
5828;DHT22;42583;50.240;8.444;2023-12-04T18:59:43;0.80;99.90
5828;DHT22;42583;50.240;8.444;2023-12-04T19:14:43;0.80;99.90
5828;DHT22;42583;50.240;8.444;2023-12-04T19:29:44;0.80;99.90
5828;DHT22;42583;50.240;8.444;2023-12-04T19:44:45;0.90;99.90
5828;DHT22;42583;50.240;8.444;2023-12-04T19:59:45;1.00;99.90
5828;DHT22;42583;50.240;8.444;2023-12-04T20:14:46;1.20;99.90
5828;DHT22;42583;50.240;8.444;2023-12-04T20:29:48;1.40;99.90
5828;DHT22;42583;50.240;8.444;2023-12-04T20:44:49;1.50;99.90
5828;DHT22;42583;50.240;8.444;2023-12-04T20:59:50;1.40;99.90
5828;DHT22;42583;50.240;8.444;2023-12-04T21:14:50;1.50;99.90
5828;DHT22;42583;50.240;8.444;2023-12-04T21:29:51;1.60;99.90
5828;DHT22;42583;50.240;8.444;2023-12-04T21:44:51;1.60;99.90
5828;DHT22;42583;50.240;8.444;2023-12-04T21:59:52;1.60;99.90
5828;DHT22;42583;50.240;8.444;2023-12-04T22:14:52;1.60;99.90
5828;DHT22;42583;50.240;8.444;2023-12-04T22:29:53;1.70;99.90
5828;DHT22;42583;50.240;8.444;2023-12-04T22:44:54;1.90;99.90
5828;DHT22;42583;50.240;8.444;2023-12-04T22:59:54;1.90;99.90
5828;DHT22;42583;50.240;8.444;2023-12-04T23:14:55;1.80;99.90
5828;DHT22;42583;50.240;8.444;2023-12-04T23:29:55;1.90;99.90
5828;DHT22;42583;50.240;8.444;2023-12-04T23:44:57;1.90;99.90
5828;DHT22;42583;50.240;8.444;2023-12-04T23:59:57;1.80;99.90
